| Date | Time | Temp. (oF) | Dew Point (oF) | Rel. Hum. (%) | Press. (in.) | Wind Dir. | Wind Speed (mph) | Hourly Rainfall (in.) |
|
|---|---|---|---|---|---|---|---|---|---|
| 1 | 10/01 | 00:00 | 49 | 39 | 70 | 30.35 | N | 2 | 0.00 |
| 2 | 09/30 | 23:00 | 51 | 40 | 66 | 30.35 | N | 4 | 0.00 |
| 3 | 09/30 | 22:00 | 53 | 41 | 64 | 30.35 | NNW | 5 | 0.00 |
| 4 | 09/30 | 21:00 | 53 | 40 | 62 | 30.33 | N | 5 | 0.00 |
| 5 | 09/30 | 20:00 | 56 | 43 | 62 | 30.30 | NE | 7 | 0.00 |
| 6 | 09/30 | 19:00 | 57 | 41 | 57 | 30.28 | N | 9 | 0.00 |
| 7 | 09/30 | 18:00 | 58 | 41 | 55 | 30.25 | NNW | 7 | 0.00 |
| 8 | 09/30 | 17:00 | 59 | 42 | 55 | 30.24 | N | 6 | 0.00 |
| 9 | 09/30 | 16:00 | 59 | 42 | 55 | 30.23 | NW | 7 | 0.00 |
| 10 | 09/30 | 15:00 | 59 | 43 | 56 | 30.22 | NW | 7 | 0.00 |
| 11 | 09/30 | 14:00 | 59 | 44 | 58 | 30.22 | N | 10 | 0.00 |
| 12 | 09/30 | 13:00 | 59 | 42 | 55 | 30.22 | NNW | 6 | 0.00 |
| 13 | 09/30 | 12:00 | 59 | 43 | 57 | 30.21 | NW | 7 | 0.00 |
| 14 | 09/30 | 11:00 | 60 | 44 | 56 | 30.19 | WNW | 6 | 0.00 |
| 15 | 09/30 | 10:00 | 59 | 44 | 59 | 30.17 | N | 10 | 0.00 |
| 16 | 09/30 | 09:00 | 57 | 45 | 66 | 30.15 | NW | 10 | 0.00 |
| 17 | 09/30 | 08:00 | 53 | 44 | 73 | 30.13 | WSW | 1 | 0.00 |
| 18 | 09/30 | 07:00 | 53 | 44 | 73 | 30.11 | W | 10 | 0.00 |
| 19 | 09/30 | 06:00 | 53 | 44 | 73 | 30.10 | NNW | 6 | 0.00 |
| 20 | 09/30 | 05:00 | 53 | 46 | 79 | 30.08 | W | 1 | 0.00 |
| 21 | 09/30 | 04:00 | 53 | 48 | 85 | 30.06 | W | 2 | 0.00 |
| 22 | 09/30 | 03:00 | 55 | 50 | 85 | 30.05 | WSW | 2 | 0.00 |
| 23 | 09/30 | 02:00 | 57 | 50 | 80 | 30.05 | SSW | 4 | 0.00 |
| 24 | 09/30 | 01:00 | 58 | 51 | 80 | 30.05 | SSW | 1 | 0.00 |